Have a Safe July 4th! 

Flight Track Log - Related Links

Times and Time Zones

All times are in EDT time to prevent confusion due to time zone crossing. See the RPA3288 flight status page for this flight to view local times or setup timezone preferences in your user account.

Time Position Orientation Groundspeed Altitude Reporting Facility
EDT Latitude Longitude Course Direction KTS MPH feet Rate Location/Type
Tue 12:04:00 PM 26.9711 -81.7333 North  Level FlightAware Approximate
Tue 12:04:00 PM 26.6967 -81.7253 348° North 261 300 5,800  Level Miami Center
Tue 12:05:00 PM 27.0771 -81.7575 340° North  Level FlightAware Approximate
Tue 12:05:00 PM 26.7758 -81.7308 356° North 286 329 9,000  Level Miami Center
Tue 12:06:00 PM 27.1814 -81.7882 343° North  Level FlightAware Approximate
Tue 12:06:00 PM 26.8592 -81.7367 356° North 291 335 10,800  Level Miami Center
Tue 12:07:00 PM 27.2841 -81.8254 336° Northwest  Level FlightAware Approximate
Tue 12:07:00 PM 26.9592 -81.7433 357° North 327 376 12,800  Level Miami Center
Tue 12:08:00 PM 27.3860 -81.8583 339° North  Level FlightAware Approximate
Tue 12:08:00 PM 27.0608 -81.7592 352° North 359 413 14,900  Level Miami Center
Tue 12:09:00 PM 27.4871 -81.9009 348° North  Level FlightAware Approximate
Tue 12:09:00 PM 27.1642 -81.7914 344° North 373 429 16,900  Level Miami Center
Tue 12:10:00 PM 27.2797 -81.8292 344° North 378 435 19,000 1,950 Climbing Miami Center
Tue 12:11:00 PM 27.3892 -81.8667 343° North 398 458 20,800 1,650 Climbing Miami Center
Tue 12:12:00 PM 27.5003 -81.9067 342° North 403 464 22,300 1,450 Climbing Miami Center
Tue 12:13:00 PM 27.6033 -81.9461 341° North 423 487 23,700 1,500 Climbing Miami Center
Tue 12:14:00 PM 27.7189 -81.9842 344° North 431 496 25,300 1,450 Climbing Miami Center
Tue 12:15:00 PM 27.8453 -81.9500 13° North 426 490 26,600 1,250 Climbing Miami Center
Tue 12:16:00 PM 27.9400 -81.8672 38° Northeast 404 465 27,800 1,150 Climbing Miami Center
Tue 12:17:00 PM 28.0325 -81.7844 38° Northeast 410 472 28,900 1,150 Climbing Miami Center
Tue 12:18:00 PM 28.1389 -81.7256 26° Northeast 417 480 30,100 1,174 Climbing Miami Center
Tue 12:19:18 PM 28.2864 -81.7069 North 420 483 31,600 1,087 Climbing Jacksonville Center
Tue 12:20:18 PM 28.4053 -81.6961 North 431 496 32,600 700 Climbing Jacksonville Center
Tue 12:21:18 PM 28.5242 -81.6853 North 425 489 33,000 200 Climbing Jacksonville Center
Tue 12:22:18 PM 28.6492 -81.6742 North 430 495 33,000  Level Jacksonville Center
Tue 12:23:18 PM 28.7783 -81.6631 North 440 506 33,000  Level Jacksonville Center
Tue 12:24:18 PM 28.9036 -81.6497 North 445 512 33,000  Level Jacksonville Center
Tue 12:25:18 PM 29.0369 -81.6411 North 439 505 33,000  Level Jacksonville Center
Tue 12:26:18 PM 29.1642 -81.6300 North 444 511 33,000  Level Jacksonville Center
Tue 12:27:18 PM 29.2914 -81.6164 North 449 517 33,000  Level Jacksonville Center
Tue 12:28:18 PM 29.4208 -81.6050 North 456 525 33,000  Level Jacksonville Center
Tue 12:29:18 PM 29.5481 -81.5914 North 461 531 33,000  Level Jacksonville Center
Tue 12:30:18 PM 29.6731 -81.5778 North 456 525 33,000  Level Jacksonville Center
Tue 12:31:18 PM 29.8025 -81.5642 North 461 531 33,000  Level Jacksonville Center
Tue 12:32:18 PM 29.9297 -81.5528 North 461 531 33,000  Level Jacksonville Center
Tue 12:33:18 PM 30.0569 -81.5392 North 461 531 33,000  Level Jacksonville Center
Tue 12:34:18 PM 30.1861 -81.5206 North 461 531 33,000  Level Jacksonville Center
Tue 12:35:18 PM 30.3153 -81.4994 North 461 531 33,000  Level Jacksonville Center
Tue 12:36:18 PM 30.4300 -81.4783 North 461 531 33,000  Level Jacksonville Center
Tue 12:37:18 PM 30.5569 -81.4597 North 461 531 33,000  Level Jacksonville Center
Tue 12:38:18 PM 30.6864 -81.4408 North 461 531 33,000  Level Jacksonville Center
Tue 12:39:18 PM 30.8156 -81.4194 North 467 537 33,000  Level Jacksonville Center
Tue 12:40:18 PM 30.9467 -81.3981 North 467 537 33,000  Level Jacksonville Center
Tue 12:41:18 PM 31.0672 -81.3403 22° Northeast 458 527 33,000  Level Jacksonville Center
Tue 12:42:18 PM 31.1853 -81.2681 28° Northeast 458 527 33,000  Level Jacksonville Center
Tue 12:43:18 PM 31.3011 -81.1956 28° Northeast 458 527 33,000  Level Jacksonville Center
Tue 12:44:18 PM 31.4150 -81.1228 29° Northeast 463 533 33,000  Level Jacksonville Center
Tue 12:45:18 PM 31.5456 -81.0400 28° Northeast 472 543 33,000  Level Jacksonville Center
Tue 12:46:18 PM 31.6592 -80.9692 28° Northeast 466 536 33,000  Level Jacksonville Center
Tue 12:47:18 PM 31.7647 -80.9036 28° Northeast 471 542 33,000  Level Jacksonville Center
Tue 12:48:18 PM 31.8928 -80.8200 29° Northeast 471 542 33,000  Level Jacksonville Center
Tue 12:49:18 PM 31.9981 -80.7539 28° Northeast 471 542 33,000  Level Jacksonville Center
Tue 12:50:18 PM 32.1303 -80.6700 28° Northeast 476 548 33,000  Level Jacksonville Center
Tue 12:51:18 PM 32.2336 -80.6036 29° Northeast 468 539 33,000  Level Jacksonville Center
Tue 12:52:18 PM 32.3511 -80.5292 28° Northeast 468 539 33,000  Level Jacksonville Center
Tue 12:53:18 PM 32.4686 -80.4525 29° Northeast 468 539 33,000  Level Jacksonville Center
Tue 12:54:18 PM 32.5842 -80.3778 29° Northeast 468 539 33,000  Level Jacksonville Center
Tue 12:55:18 PM 32.7017 -80.3006 29° Northeast 473 544 33,000  Level Jacksonville Center
Tue 12:56:18 PM 32.8147 -80.2256 29° Northeast 468 539 33,000  Level Jacksonville Center
Tue 12:57:18 PM 32.9486 -80.1400 28° Northeast 482 555 33,000  Level Jacksonville Center
Tue 12:58:18 PM 33.0578 -80.0772 26° Northeast 471 542 33,000  Level Jacksonville Center
Tue 12:59:18 PM 33.2008 -80.0278 16° North 486 559 33,000  Level Jacksonville Center
Tue 01:00:18 PM 33.3292 -79.9789 18° North 479 551 33,000  Level Jacksonville Center
Tue 01:01:18 PM 33.4575 -79.9350 16° North 474 545 33,000  Level Jacksonville Center
Tue 01:02:18 PM 33.5836 -79.8908 16° North 469 540 33,000  Level Jacksonville Center
Tue 01:03:18 PM 33.7072 -79.8167 27° Northeast 474 545 33,000  Level Jacksonville Center
Tue 01:04:18 PM 33.8111 -79.7156 39° Northeast 474 545 33,000  Level Jacksonville Center
Tue 01:05:18 PM 33.9147 -79.6092 40° Northeast 479 551 33,000  Level Jacksonville Center
Tue 01:06:18 PM 34.0206 -79.5053 39° Northeast 484 557 33,000  Level Jacksonville Center
Tue 01:08:18 PM 34.2225 -79.3089 39° Northeast 467 537 33,000  Level Washington Center
Tue 01:09:16 PM 34.3422 -79.2189 32° Northeast 482 555 33,000  Level Washington Center
Tue 01:10:17 PM 34.4653 -79.1461 26° Northeast 487 560 33,000  Level Washington Center
Tue 01:11:18 PM 34.5925 -79.0761 24° Northeast 487 560 33,000  Level Washington Center
Tue 01:12:18 PM 34.7158 -79.0031 26° Northeast 487 560 33,000  Level Washington Center
Tue 01:13:16 PM 34.8386 -78.9347 25° Northeast 487 560 33,000  Level Washington Center
Tue 01:14:17 PM 34.9617 -78.8586 27° Northeast 487 560 33,000  Level Washington Center
Tue 01:15:18 PM 35.0869 -78.7878 25° Northeast 487 560 33,000  Level Washington Center
Tue 01:16:18 PM 35.2119 -78.7164 25° Northeast 487 560 33,000  Level Washington Center
Tue 01:17:16 PM 35.3347 -78.6422 26° Northeast 487 560 33,000  Level Washington Center
Tue 01:18:16 PM 35.4619 -78.5656 26° Northeast 498 573 33,000  Level Washington Center
Tue 01:19:17 PM 35.5742 -78.4981 26° Northeast 498 573 33,000  Level Washington Center
Tue 01:20:17 PM 35.7033 -78.4236 25° Northeast 503 579 33,000  Level Washington Center
Tue 01:22:18 PM 35.9528 -78.2758 26° Northeast 497 572 33,000 -101 Level Washington Center
Tue 01:23:16 PM 36.0778 -78.1981 27° Northeast 497 572 32,700 -1,373 Descending Washington Center
Tue 01:24:16 PM 36.1939 -78.1297 25° Northeast 485 558 30,300 -2,380 Descending Washington Center
Tue 01:25:17 PM 36.3081 -78.0614 26° Northeast 464 534 27,900 -1,623 Descending Washington Center
Tue 01:26:18 PM 36.4200 -77.9900 27° Northeast 425 489 27,000 -446 Descending Washington Center
Tue 01:27:18 PM 36.5233 -77.9283 26° Northeast 411 473 27,000 -966 Level Washington Center
Tue 01:28:16 PM 36.6269 -77.8642 26° Northeast 406 467 25,100 -1,966 Descending Washington Center
Tue 01:29:17 PM 36.7239 -77.8050 26° Northeast 400 460 23,100 -1,525 Descending Washington Center
Tue 01:30:18 PM 36.8147 -77.7453 28° Northeast 386 444 22,000 -541 Descending Washington Center
Tue 01:31:19 PM 36.9075 -77.6906 25° Northeast 370 426 22,000  Level Washington Center
Tue 01:32:16 PM 36.9983 -77.6358 26° Northeast 365 420 22,000  Level Washington Center
Tue 01:33:17 PM 37.0908 -77.5786 26° Northeast 365 420 22,000  Level Washington Center
Tue 01:34:18 PM 37.1942 -77.5211 24° Northeast 380 437 22,000  Level Washington Center
Tue 01:35:17 PM 37.3053 -77.4822 16° North 398 458 22,000  Level Washington Center
Tue 01:36:17 PM 37.4164 -77.4458 15° North 403 464 22,000  Level Washington Center
Tue 01:37:18 PM 37.5297 -77.4092 14° North 408 470 22,000  Level Washington Center
Tue 01:38:19 PM 37.6408 -77.3725 15° North 408 470 22,000 -763 Level Washington Center
Tue 01:39:16 PM 37.7519 -77.3358 15° North 408 470 20,500 -1,831 Descending Washington Center
Tue 01:40:17 PM 37.8544 -77.3014 15° North 397 457 18,400 -2,066 Descending Washington Center
Tue 01:41:18 PM 37.9572 -77.2667 15° North 384 442 16,300 -1,934 Descending Washington Center
Tue 01:42:18 PM 38.0578 -77.2372 13° North 377 434 14,500 -1,881 Descending Washington Center
Tue 01:43:16 PM 38.1542 -77.2050 15° North 371 427 12,600 -1,983 Descending Washington Center
Tue 01:44:16 PM 38.2483 -77.1703 16° North 358 412 10,600 -1,289 Descending Washington Center
Tue 01:45:17 PM 38.3403 -77.1483 11° North 352 405 10,000 -298 Descending Washington Center
Tue 01:46:17 PM 38.4344 -77.1317 North 337 388 10,000  Level Washington Center
Tue 01:47:18 PM 38.5286 -77.1097 10° North 337 388 10,000  Level Washington Center
Tue 01:48:18 PM 38.6206 -77.0903 North 337 388 10,000 -408 Level Washington Center
Tue 01:49:01 PM 38.6833 -77.0667 16° North 293 337 9,300 -796 Descending Potomac TRACON
Tue 01:49:56 PM 38.7500 -77.0667 360° North 255 293 8,700 -574 Descending Potomac TRACON
Tue 01:50:56 PM 38.8000 -77.1000 333° Northwest 206 237 8,200 -1,000 Descending Potomac TRACON
Tue 01:51:56 PM 38.8500 -77.1333 333° Northwest 191 220 6,700 -1,429 Descending Potomac TRACON
Tue 01:53:02 PM 38.8833 -77.1833 311° West 187 215 5,200 -1,381 Descending Potomac TRACON
Tue 01:54:02 PM 38.9333 -77.2333 322° Northwest 196 226 3,800 -1,200 Descending Potomac TRACON
Tue 01:55:02 PM 38.9500 -77.1667 72° East 195 224 2,800 -950 Descending Potomac TRACON
Tue 01:56:02 PM 38.9167 -77.1167 131° Southeast 191 220 1,900 -900 Descending Potomac TRACON
Tue 01:57:02 PM 38.9000 -77.0667 113° Southeast 169 194 1,000 -900 Descending Potomac TRACON
Tue 01:59:00 PM 38.8500 -77.0333 106° East  Level FlightAware Approximate

Login

Don't have an account? Register now (free) for customized features, flight alerts, and more!